sensor_id;sensor_type;location;lat;lon;timestamp;pressure;altitude;pressure_sealevel;temperature;humidity
141;BME280;65;48.778;9.160;2022-08-21T00:01:03;98615.25;;;17.19;63.53
141;BME280;65;48.778;9.160;2022-08-21T00:03:31;98623.78;;;17.13;63.77
141;BME280;65;48.778;9.160;2022-08-21T00:05:57;98628.28;;;17.13;64.01
141;BME280;65;48.778;9.160;2022-08-21T00:08:22;98626.25;;;17.05;64.03
141;BME280;65;48.778;9.160;2022-08-21T00:10:48;98622.25;;;16.99;64.08
141;BME280;65;48.778;9.160;2022-08-21T00:13:14;98627.84;;;16.96;64.23
141;BME280;65;48.778;9.160;2022-08-21T00:15:41;98620.94;;;16.94;64.73
141;BME280;65;48.778;9.160;2022-08-21T00:18:08;98615.84;;;16.91;64.90
141;BME280;65;48.778;9.160;2022-08-21T00:20:34;98612.81;;;16.95;63.72
141;BME280;65;48.778;9.160;2022-08-21T00:23:00;98616.34;;;17.17;62.25
141;BME280;65;48.778;9.160;2022-08-21T00:25:26;98614.06;;;17.12;63.59
141;BME280;65;48.778;9.160;2022-08-21T00:27:52;98612.88;;;17.05;63.20
141;BME280;65;48.778;9.160;2022-08-21T00:30:20;98606.09;;;17.01;63.36
141;BME280;65;48.778;9.160;2022-08-21T00:32:46;98608.44;;;16.94;63.81
141;BME280;65;48.778;9.160;2022-08-21T00:35:15;98611.50;;;16.90;63.87
141;BME280;65;48.778;9.160;2022-08-21T00:37:58;98611.88;;;16.85;64.06
141;BME280;65;48.778;9.160;2022-08-21T00:40:31;98618.31;;;16.83;64.20
141;BME280;65;48.778;9.160;2022-08-21T00:42:57;98611.53;;;16.79;64.65
141;BME280;65;48.778;9.160;2022-08-21T00:45:23;98616.00;;;16.78;64.84
141;BME280;65;48.778;9.160;2022-08-21T00:47:49;98614.78;;;16.82;64.38
141;BME280;65;48.778;9.160;2022-08-21T00:50:15;98609.06;;;16.75;65.03
141;BME280;65;48.778;9.160;2022-08-21T00:52:41;98607.16;;;16.66;65.39
141;BME280;65;48.778;9.160;2022-08-21T00:55:08;98608.34;;;16.62;65.90
141;BME280;65;48.778;9.160;2022-08-21T00:57:44;98605.19;;;16.57;66.01
141;BME280;65;48.778;9.160;2022-08-21T01:00:16;98610.41;;;16.59;65.39
141;BME280;65;48.778;9.160;2022-08-21T01:02:43;98601.09;;;16.53;65.82
141;BME280;65;48.778;9.160;2022-08-21T01:05:09;98604.72;;;16.52;65.93
141;BME280;65;48.778;9.160;2022-08-21T01:07:34;98603.53;;;16.45;66.21
141;BME280;65;48.778;9.160;2022-08-21T01:10:00;98606.44;;;16.53;66.03
141;BME280;65;48.778;9.160;2022-08-21T01:12:26;98597.81;;;16.50;66.53
141;BME280;65;48.778;9.160;2022-08-21T01:14:53;98602.19;;;16.51;67.08
141;BME280;65;48.778;9.160;2022-08-21T01:17:19;98605.94;;;16.48;66.78
141;BME280;65;48.778;9.160;2022-08-21T01:19:45;98603.91;;;16.40;67.22
141;BME280;65;48.778;9.160;2022-08-21T01:22:12;98601.59;;;16.36;67.70
141;BME280;65;48.778;9.160;2022-08-21T01:24:38;98609.47;;;16.37;67.87
141;BME280;65;48.778;9.160;2022-08-21T01:27:03;98600.28;;;16.30;67.44
141;BME280;65;48.778;9.160;2022-08-21T01:30:01;98603.31;;;16.26;68.07
141;BME280;65;48.778;9.160;2022-08-21T01:32:27;98601.63;;;16.25;68.69
141;BME280;65;48.778;9.160;2022-08-21T01:34:52;98608.28;;;16.19;68.16
141;BME280;65;48.778;9.160;2022-08-21T01:37:19;98599.53;;;16.17;68.37
141;BME280;65;48.778;9.160;2022-08-21T01:39:48;98600.63;;;16.14;68.28
141;BME280;65;48.778;9.160;2022-08-21T01:42:14;98598.94;;;16.13;68.28
141;BME280;65;48.778;9.160;2022-08-21T01:44:39;98597.97;;;16.14;69.04
141;BME280;65;48.778;9.160;2022-08-21T01:47:08;98594.09;;;16.19;68.52
141;BME280;65;48.778;9.160;2022-08-21T01:49:35;98583.19;;;16.22;68.27
141;BME280;65;48.778;9.160;2022-08-21T01:52:02;98583.31;;;16.20;68.06
141;BME280;65;48.778;9.160;2022-08-21T01:54:28;98590.69;;;16.17;67.91
141;BME280;65;48.778;9.160;2022-08-21T01:56:54;98593.59;;;16.13;68.62
141;BME280;65;48.778;9.160;2022-08-21T01:59:22;98590.44;;;16.08;68.08
141;BME280;65;48.778;9.160;2022-08-21T02:01:47;98589.00;;;16.04;69.23
141;BME280;65;48.778;9.160;2022-08-21T02:04:13;98577.47;;;16.04;68.57
141;BME280;65;48.778;9.160;2022-08-21T02:06:39;98576.63;;;16.03;68.05
141;BME280;65;48.778;9.160;2022-08-21T02:09:06;98576.50;;;16.05;67.88
141;BME280;65;48.778;9.160;2022-08-21T02:11:32;98579.19;;;16.05;67.46
141;BME280;65;48.778;9.160;2022-08-21T02:13:58;98575.19;;;15.99;68.21
141;BME280;65;48.778;9.160;2022-08-21T02:16:23;98576.28;;;15.97;69.21
141;BME280;65;48.778;9.160;2022-08-21T02:18:49;98574.94;;;15.91;69.45
141;BME280;65;48.778;9.160;2022-08-21T02:21:14;98584.16;;;15.87;69.40
141;BME280;65;48.778;9.160;2022-08-21T02:23:40;98576.38;;;15.84;69.83
141;BME280;65;48.778;9.160;2022-08-21T02:26:07;98578.31;;;15.82;69.66
141;BME280;65;48.778;9.160;2022-08-21T02:28:33;98570.09;;;15.85;70.08
141;BME280;65;48.778;9.160;2022-08-21T02:30:59;98577.84;;;15.88;69.58
141;BME280;65;48.778;9.160;2022-08-21T02:33:26;98578.09;;;15.85;69.76
141;BME280;65;48.778;9.160;2022-08-21T02:35:51;98575.41;;;15.85;69.39
141;BME280;65;48.778;9.160;2022-08-21T02:38:22;98577.34;;;15.83;69.82
141;BME280;65;48.778;9.160;2022-08-21T02:40:49;98569.84;;;15.77;69.89
141;BME280;65;48.778;9.160;2022-08-21T02:43:15;98568.88;;;15.78;70.51
141;BME280;65;48.778;9.160;2022-08-21T02:45:41;98569.25;;;15.73;70.79
141;BME280;65;48.778;9.160;2022-08-21T02:48:09;98572.25;;;15.69;70.02
141;BME280;65;48.778;9.160;2022-08-21T02:50:46;98567.06;;;15.67;70.52
141;BME280;65;48.778;9.160;2022-08-21T02:53:14;98573.47;;;15.65;70.74
141;BME280;65;48.778;9.160;2022-08-21T02:55:42;98576.25;;;15.63;70.61
141;BME280;65;48.778;9.160;2022-08-21T02:58:08;98571.03;;;15.62;70.96
141;BME280;65;48.778;9.160;2022-08-21T03:00:35;98572.88;;;15.61;71.03
141;BME280;65;48.778;9.160;2022-08-21T03:03:02;98579.44;;;15.56;71.40
141;BME280;65;48.778;9.160;2022-08-21T03:05:29;98581.28;;;15.55;71.58
141;BME280;65;48.778;9.160;2022-08-21T03:07:56;98589.91;;;15.59;71.94
141;BME280;65;48.778;9.160;2022-08-21T03:10:23;98581.28;;;15.55;71.91
141;BME280;65;48.778;9.160;2022-08-21T03:12:50;98578.09;;;15.50;71.80
141;BME280;65;48.778;9.160;2022-08-21T03:15:18;98581.13;;;15.45;72.50
141;BME280;65;48.778;9.160;2022-08-21T03:17:44;98575.19;;;15.42;73.13
141;BME280;65;48.778;9.160;2022-08-21T03:20:13;98573.50;;;15.41;73.37
141;BME280;65;48.778;9.160;2022-08-21T03:22:39;98576.41;;;15.38;73.33
141;BME280;65;48.778;9.160;2022-08-21T03:25:05;98572.66;;;15.40;73.68
141;BME280;65;48.778;9.160;2022-08-21T03:27:31;98575.44;;;15.39;73.26
141;BME280;65;48.778;9.160;2022-08-21T03:29:57;98578.56;;;15.33;74.01
141;BME280;65;48.778;9.160;2022-08-21T03:32:22;98580.38;;;15.32;73.86
141;BME280;65;48.778;9.160;2022-08-21T03:34:48;98582.53;;;15.27;74.28
141;BME280;65;48.778;9.160;2022-08-21T03:37:14;98584.47;;;15.25;74.38
141;BME280;65;48.778;9.160;2022-08-21T03:39:40;98587.13;;;15.25;74.25
141;BME280;65;48.778;9.160;2022-08-21T03:42:07;98584.72;;;15.22;74.53
141;BME280;65;48.778;9.160;2022-08-21T03:44:33;98586.41;;;15.23;73.92
141;BME280;65;48.778;9.160;2022-08-21T03:47:00;98589.28;;;15.20;74.35
141;BME280;65;48.778;9.160;2022-08-21T03:49:25;98590.25;;;15.19;74.20
141;BME280;65;48.778;9.160;2022-08-21T03:51:51;98592.94;;;15.19;74.53
141;BME280;65;48.778;9.160;2022-08-21T03:54:16;98593.28;;;15.14;74.09
141;BME280;65;48.778;9.160;2022-08-21T03:56:42;98598.09;;;15.09;75.05
141;BME280;65;48.778;9.160;2022-08-21T03:59:08;98595.91;;;15.03;74.92
141;BME280;65;48.778;9.160;2022-08-21T04:01:34;98600.16;;;15.06;75.10
141;BME280;65;48.778;9.160;2022-08-21T04:03:59;98600.16;;;15.06;75.04
141;BME280;65;48.778;9.160;2022-08-21T04:06:25;98597.59;;;15.04;74.92
141;BME280;65;48.778;9.160;2022-08-21T04:08:52;98598.75;;;15.00;74.86
141;BME280;65;48.778;9.160;2022-08-21T04:11:17;98599.84;;;14.98;74.84
141;BME280;65;48.778;9.160;2022-08-21T04:13:42;98601.31;;;15.02;74.87
141;BME280;65;48.778;9.160;2022-08-21T04:16:08;98597.16;;;14.98;75.23
141;BME280;65;48.778;9.160;2022-08-21T04:18:33;98599.72;;;14.99;75.33
141;BME280;65;48.778;9.160;2022-08-21T04:20:59;98600.25;;;15.04;75.98
141;BME280;65;48.778;9.160;2022-08-21T04:23:25;98603.53;;;15.08;75.31
141;BME280;65;48.778;9.160;2022-08-21T04:25:55;98614.19;;;15.08;74.82
141;BME280;65;48.778;9.160;2022-08-21T04:28:22;98616.31;;;15.03;75.56
141;BME280;65;48.778;9.160;2022-08-21T04:30:49;98615.16;;;15.07;75.06
141;BME280;65;48.778;9.160;2022-08-21T04:33:15;98616.72;;;15.09;75.07
141;BME280;65;48.778;9.160;2022-08-21T04:35:40;98616.13;;;15.06;75.07
141;BME280;65;48.778;9.160;2022-08-21T04:38:07;98618.97;;;15.03;74.92
141;BME280;65;48.778;9.160;2022-08-21T04:40:32;98626.75;;;15.06;74.48
141;BME280;65;48.778;9.160;2022-08-21T04:43:02;98632.09;;;15.06;74.20
141;BME280;65;48.778;9.160;2022-08-21T04:45:33;98632.81;;;15.08;74.56
141;BME280;65;48.778;9.160;2022-08-21T04:48:02;98628.84;;;15.13;74.25
141;BME280;65;48.778;9.160;2022-08-21T04:53:08;98629.50;;;15.28;72.75
141;BME280;65;48.778;9.160;2022-08-21T04:55:34;98637.25;;;15.31;72.88
141;BME280;65;48.778;9.160;2022-08-21T04:58:00;98625.41;;;15.35;72.34
141;BME280;65;48.778;9.160;2022-08-21T05:00:26;98635.50;;;15.43;71.57
141;BME280;65;48.778;9.160;2022-08-21T05:02:53;98630.53;;;15.49;71.73
141;BME280;65;48.778;9.160;2022-08-21T05:05:24;98635.50;;;15.54;70.94
141;BME280;65;48.778;9.160;2022-08-21T05:07:50;98635.28;;;15.57;71.08
141;BME280;65;48.778;9.160;2022-08-21T05:10:17;98633.69;;;15.67;71.21
141;BME280;65;48.778;9.160;2022-08-21T05:12:43;98630.19;;;15.78;70.94
141;BME280;65;48.778;9.160;2022-08-21T05:15:11;98636.72;;;15.85;71.60
141;BME280;65;48.778;9.160;2022-08-21T05:17:42;98636.00;;;15.94;71.35
141;BME280;65;48.778;9.160;2022-08-21T05:20:09;98637.47;;;15.98;69.98
141;BME280;65;48.778;9.160;2022-08-21T05:22:35;98633.34;;;16.05;70.03
141;BME280;65;48.778;9.160;2022-08-21T05:25:01;98647.66;;;16.16;68.60
141;BME280;65;48.778;9.160;2022-08-21T05:27:27;98645.63;;;16.30;68.35
141;BME280;65;48.778;9.160;2022-08-21T05:29:55;98658.59;;;16.46;68.86
141;BME280;65;48.778;9.160;2022-08-21T05:32:20;98650.72;;;16.67;67.72
141;BME280;65;48.778;9.160;2022-08-21T05:34:46;98649.03;;;16.77;67.57
141;BME280;65;48.778;9.160;2022-08-21T05:37:12;98648.53;;;16.83;67.41
141;BME280;65;48.778;9.160;2022-08-21T05:39:37;98655.16;;;17.00;66.71
141;BME280;65;48.778;9.160;2022-08-21T05:42:03;98656.94;;;17.11;66.12
141;BME280;65;48.778;9.160;2022-08-21T05:44:28;98660.06;;;17.16;65.91
141;BME280;65;48.778;9.160;2022-08-21T05:46:54;98661.38;;;17.21;66.02
141;BME280;65;48.778;9.160;2022-08-21T05:49:19;98660.03;;;17.27;65.93
141;BME280;65;48.778;9.160;2022-08-21T05:52:01;98652.72;;;17.29;65.37
141;BME280;65;48.778;9.160;2022-08-21T05:54:27;98654.78;;;17.36;64.99
141;BME280;65;48.778;9.160;2022-08-21T05:56:52;98653.31;;;17.44;64.45
141;BME280;65;48.778;9.160;2022-08-21T05:59:18;98656.19;;;17.52;64.72
141;BME280;65;48.778;9.160;2022-08-21T06:01:43;98658.34;;;17.58;63.92
141;BME280;65;48.778;9.160;2022-08-21T06:04:10;98660.72;;;17.72;63.53
141;BME280;65;48.778;9.160;2022-08-21T06:06:36;98658.81;;;17.84;62.42
141;BME280;65;48.778;9.160;2022-08-21T06:09:02;98662.94;;;17.88;62.23
141;BME280;65;48.778;9.160;2022-08-21T06:11:28;98663.63;;;17.90;61.91
141;BME280;65;48.778;9.160;2022-08-21T06:13:53;98658.13;;;18.02;61.72
141;BME280;65;48.778;9.160;2022-08-21T06:16:18;98660.06;;;18.00;61.42
141;BME280;65;48.778;9.160;2022-08-21T06:18:44;98658.63;;;18.17;61.05
141;BME280;65;48.778;9.160;2022-08-21T06:21:11;98649.50;;;18.29;60.19
141;BME280;65;48.778;9.160;2022-08-21T06:23:38;98653.47;;;18.35;60.52
141;BME280;65;48.778;9.160;2022-08-21T06:26:04;98658.72;;;18.46;59.63
141;BME280;65;48.778;9.160;2022-08-21T06:28:31;98655.28;;;18.55;59.49
141;BME280;65;48.778;9.160;2022-08-21T06:30:57;98660.13;;;18.61;59.71
141;BME280;65;48.778;9.160;2022-08-21T06:33:23;98659.56;;;18.68;59.20
141;BME280;65;48.778;9.160;2022-08-21T06:35:49;98650.44;;;18.80;58.95
141;BME280;65;48.778;9.160;2022-08-21T06:38:14;98643.00;;;18.93;58.56
141;BME280;65;48.778;9.160;2022-08-21T06:40:40;98644.09;;;18.81;58.35
141;BME280;65;48.778;9.160;2022-08-21T06:43:13;98646.38;;;18.85;58.22
141;BME280;65;48.778;9.160;2022-08-21T06:45:39;98647.78;;;18.89;58.34
141;BME280;65;48.778;9.160;2022-08-21T06:48:05;98645.31;;;19.17;57.75
141;BME280;65;48.778;9.160;2022-08-21T06:50:32;98644.88;;;19.41;56.96
141;BME280;65;48.778;9.160;2022-08-21T06:53:02;98637.81;;;19.40;56.43
141;BME280;65;48.778;9.160;2022-08-21T06:55:41;98644.19;;;19.58;56.31
141;BME280;65;48.778;9.160;2022-08-21T06:58:08;98645.31;;;19.65;56.08
141;BME280;65;48.778;9.160;2022-08-21T07:00:35;98642.66;;;19.75;55.62
141;BME280;65;48.778;9.160;2022-08-21T07:03:00;98637.13;;;19.86;55.25
141;BME280;65;48.778;9.160;2022-08-21T07:05:28;98636.63;;;20.10;54.51
141;BME280;65;48.778;9.160;2022-08-21T07:07:54;98633.75;;;20.40;53.44
141;BME280;65;48.778;9.160;2022-08-21T07:10:19;98629.81;;;20.62;52.56
141;BME280;65;48.778;9.160;2022-08-21T07:12:44;98630.22;;;20.67;53.10
141;BME280;65;48.778;9.160;2022-08-21T07:15:10;98630.06;;;20.96;51.41
141;BME280;65;48.778;9.160;2022-08-21T07:17:36;98631.53;;;21.08;51.39
141;BME280;65;48.778;9.160;2022-08-21T07:20:02;98633.63;;;21.32;50.66
141;BME280;65;48.778;9.160;2022-08-21T07:22:43;98627.66;;;21.56;49.92
141;BME280;65;48.778;9.160;2022-08-21T07:25:09;98629.59;;;21.90;48.97
141;BME280;65;48.778;9.160;2022-08-21T07:27:34;98625.91;;;22.42;48.08
141;BME280;65;48.778;9.160;2022-08-21T07:30:00;98624.44;;;23.81;44.42
141;BME280;65;48.778;9.160;2022-08-21T07:32:25;98636.13;;;25.54;40.95
141;BME280;65;48.778;9.160;2022-08-21T07:34:51;98621.09;;;27.37;37.57
141;BME280;65;48.778;9.160;2022-08-21T07:37:16;98621.75;;;29.07;33.66
141;BME280;65;48.778;9.160;2022-08-21T07:39:41;98613.56;;;29.00;33.14
141;BME280;65;48.778;9.160;2022-08-21T07:42:07;98625.81;;;27.28;35.75
141;BME280;65;48.778;9.160;2022-08-21T07:44:33;98613.94;;;26.49;38.13
141;BME280;65;48.778;9.160;2022-08-21T07:47:00;98611.03;;;27.16;36.57
141;BME280;65;48.778;9.160;2022-08-21T07:49:26;98614.53;;;29.47;32.81
141;BME280;65;48.778;9.160;2022-08-21T07:51:51;98618.25;;;29.26;32.33
141;BME280;65;48.778;9.160;2022-08-21T07:54:17;98609.91;;;30.73;31.03
141;BME280;65;48.778;9.160;2022-08-21T07:56:42;98611.91;;;31.73;28.76
141;BME280;65;48.778;9.160;2022-08-21T07:59:08;98599.69;;;32.51;28.11
141;BME280;65;48.778;9.160;2022-08-21T08:01:50;98608.09;;;33.52;26.71
141;BME280;65;48.778;9.160;2022-08-21T08:04:15;98599.41;;;33.25;26.34
141;BME280;65;48.778;9.160;2022-08-21T08:06:41;98603.28;;;33.36;26.17
141;BME280;65;48.778;9.160;2022-08-21T08:09:06;98608.34;;;34.04;25.55
141;BME280;65;48.778;9.160;2022-08-21T08:11:32;98600.50;;;35.06;23.80
141;BME280;65;48.778;9.160;2022-08-21T08:13:58;98600.09;;;34.63;24.71
141;BME280;65;48.778;9.160;2022-08-21T08:16:26;98596.69;;;35.07;24.30
141;BME280;65;48.778;9.160;2022-08-21T08:18:51;98589.97;;;34.63;24.15
141;BME280;65;48.778;9.160;2022-08-21T08:21:17;98596.00;;;35.40;23.56
141;BME280;65;48.778;9.160;2022-08-21T08:23:46;98589.81;;;34.93;23.90
141;BME280;65;48.778;9.160;2022-08-21T08:26:12;98585.56;;;35.88;22.71
141;BME280;65;48.778;9.160;2022-08-21T08:28:37;98583.72;;;32.48;27.23
141;BME280;65;48.778;9.160;2022-08-21T08:31:03;98587.38;;;34.45;24.63
141;BME280;65;48.778;9.160;2022-08-21T08:33:29;98579.56;;;34.65;23.90
141;BME280;65;48.778;9.160;2022-08-21T08:35:56;98577.50;;;35.53;23.24
141;BME280;65;48.778;9.160;2022-08-21T08:38:23;98579.19;;;36.37;21.48
141;BME280;65;48.778;9.160;2022-08-21T08:41:04;98576.34;;;35.48;22.83
141;BME280;65;48.778;9.160;2022-08-21T08:43:32;98568.84;;;35.77;22.57
141;BME280;65;48.778;9.160;2022-08-21T08:46:16;98566.75;;;36.52;21.72
141;BME280;65;48.778;9.160;2022-08-21T08:48:52;98561.63;;;36.60;21.57
141;BME280;65;48.778;9.160;2022-08-21T08:53:55;98562.84;;;37.99;19.91
141;BME280;65;48.778;9.160;2022-08-21T08:56:28;98559.22;;;37.34;20.16
141;BME280;65;48.778;9.160;2022-08-21T08:58:57;98563.31;;;37.59;19.55
141;BME280;65;48.778;9.160;2022-08-21T09:01:23;98557.41;;;37.72;19.45
141;BME280;65;48.778;9.160;2022-08-21T09:03:49;98550.25;;;33.95;23.39
141;BME280;65;48.778;9.160;2022-08-21T09:06:42;98544.53;;;37.02;19.61
141;BME280;65;48.778;9.160;2022-08-21T09:09:34;98539.56;;;36.60;19.76
141;BME280;65;48.778;9.160;2022-08-21T09:28:38;98529.09;;;34.54;21.12
141;BME280;65;48.778;9.160;2022-08-21T09:31:22;98539.69;;;36.10;19.67
141;BME280;65;48.778;9.160;2022-08-21T09:33:48;98535.78;;;37.37;19.03
141;BME280;65;48.778;9.160;2022-08-21T09:36:25;98532.56;;;37.18;19.43
141;BME280;65;48.778;9.160;2022-08-21T09:38:53;98527.31;;;38.13;17.26
141;BME280;65;48.778;9.160;2022-08-21T09:41:27;98527.19;;;37.60;18.09
141;BME280;65;48.778;9.160;2022-08-21T09:43:53;98526.59;;;37.26;19.25
141;BME280;65;48.778;9.160;2022-08-21T09:46:24;98528.31;;;37.96;18.49
141;BME280;65;48.778;9.160;2022-08-21T09:48:53;98524.00;;;36.93;19.32
141;BME280;65;48.778;9.160;2022-08-21T09:51:32;98531.06;;;38.34;17.90
141;BME280;65;48.778;9.160;2022-08-21T09:54:12;98519.59;;;39.55;16.76
141;BME280;65;48.778;9.160;2022-08-21T09:57:01;98511.78;;;39.06;16.88
141;BME280;65;48.778;9.160;2022-08-21T09:59:55;98528.16;;;38.60;17.08
141;BME280;65;48.778;9.160;2022-08-21T10:02:30;98521.69;;;38.40;18.09
141;BME280;65;48.778;9.160;2022-08-21T10:05:08;98516.72;;;37.30;18.88
141;BME280;65;48.778;9.160;2022-08-21T10:07:40;98514.16;;;38.20;17.38
141;BME280;65;48.778;9.160;2022-08-21T10:12:58;98511.66;;;38.18;18.05
141;BME280;65;48.778;9.160;2022-08-21T10:18:38;98499.56;;;38.97;17.06
141;BME280;65;48.778;9.160;2022-08-21T10:29:18;98484.53;;;38.15;17.75
141;BME280;65;48.778;9.160;2022-08-21T10:32:24;98493.53;;;39.26;16.89
141;BME280;65;48.778;9.160;2022-08-21T10:46:08;98473.63;;;39.79;16.33
141;BME280;65;48.778;9.160;2022-08-21T10:48:51;98473.53;;;40.30;15.46
141;BME280;65;48.778;9.160;2022-08-21T10:51:28;98479.13;;;37.56;18.08
141;BME280;65;48.778;9.160;2022-08-21T10:56:32;98460.38;;;39.66;16.48
141;BME280;65;48.778;9.160;2022-08-21T11:01:54;98474.22;;;39.61;15.58
141;BME280;65;48.778;9.160;2022-08-21T11:04:32;98465.06;;;39.76;16.10
141;BME280;65;48.778;9.160;2022-08-21T11:07:20;98466.72;;;39.97;15.76
141;BME280;65;48.778;9.160;2022-08-21T11:09:47;98458.16;;;39.48;16.43
141;BME280;65;48.778;9.160;2022-08-21T11:17:37;98446.75;;;40.05;15.22
141;BME280;65;48.778;9.160;2022-08-21T11:20:19;98452.81;;;41.65;14.30
141;BME280;65;48.778;9.160;2022-08-21T11:22:50;98451.97;;;41.31;14.70
141;BME280;65;48.778;9.160;2022-08-21T11:25:29;98444.47;;;40.23;15.03
141;BME280;65;48.778;9.160;2022-08-21T11:28:08;98439.09;;;41.01;14.49
141;BME280;65;48.778;9.160;2022-08-21T11:36:51;98434.22;;;35.71;19.13
141;BME280;65;48.778;9.160;2022-08-21T11:39:30;98430.75;;;39.11;16.22
141;BME280;65;48.778;9.160;2022-08-21T11:44:50;98435.19;;;37.77;17.59
141;BME280;65;48.778;9.160;2022-08-21T11:47:55;98426.59;;;39.29;16.55
141;BME280;65;48.778;9.160;2022-08-21T11:50:30;98425.38;;;40.16;14.87
141;BME280;65;48.778;9.160;2022-08-21T11:53:39;98424.44;;;37.80;17.10
141;BME280;65;48.778;9.160;2022-08-21T11:56:12;98420.88;;;40.30;15.60
141;BME280;65;48.778;9.160;2022-08-21T11:58:48;98415.66;;;40.78;15.08
141;BME280;65;48.778;9.160;2022-08-21T12:01:25;98414.97;;;39.21;16.14
141;BME280;65;48.778;9.160;2022-08-21T12:04:02;98420.63;;;37.91;17.36
141;BME280;65;48.778;9.160;2022-08-21T12:06:40;98421.44;;;37.50;18.19
141;BME280;65;48.778;9.160;2022-08-21T12:09:35;98417.72;;;38.96;16.16
141;BME280;65;48.778;9.160;2022-08-21T12:12:22;98422.16;;;39.73;15.25
141;BME280;65;48.778;9.160;2022-08-21T12:14:51;98410.50;;;39.97;15.12
141;BME280;65;48.778;9.160;2022-08-21T12:17:22;98416.09;;;39.31;16.24
141;BME280;65;48.778;9.160;2022-08-21T12:23:01;98406.69;;;40.52;14.63
141;BME280;65;48.778;9.160;2022-08-21T12:28:26;98402.13;;;40.71;14.39
141;BME280;65;48.778;9.160;2022-08-21T12:30:52;98390.03;;;36.92;17.44
141;BME280;65;48.778;9.160;2022-08-21T12:35:43;98388.47;;;36.25;18.49
141;BME280;65;48.778;9.160;2022-08-21T12:38:31;98395.78;;;33.01;22.12
141;BME280;65;48.778;9.160;2022-08-21T12:41:05;98381.28;;;35.42;19.38
141;BME280;65;48.778;9.160;2022-08-21T12:43:47;98382.84;;;36.37;18.64
141;BME280;65;48.778;9.160;2022-08-21T12:46:21;98374.72;;;35.65;19.56
141;BME280;65;48.778;9.160;2022-08-21T12:49:19;98370.16;;;36.14;18.38
141;BME280;65;48.778;9.160;2022-08-21T12:51:55;98383.66;;;37.55;17.20
141;BME280;65;48.778;9.160;2022-08-21T12:54:27;98379.72;;;37.78;17.16
141;BME280;65;48.778;9.160;2022-08-21T12:57:05;98382.53;;;37.14;18.55
141;BME280;65;48.778;9.160;2022-08-21T12:59:31;98377.41;;;35.60;19.57
141;BME280;65;48.778;9.160;2022-08-21T13:02:00;98388.78;;;33.76;21.74
141;BME280;65;48.778;9.160;2022-08-21T13:04:36;98381.63;;;33.40;21.65
141;BME280;65;48.778;9.160;2022-08-21T13:07:09;98372.91;;;31.88;23.74
141;BME280;65;48.778;9.160;2022-08-21T13:09:44;98380.25;;;30.94;24.78
141;BME280;65;48.778;9.160;2022-08-21T13:12:12;98382.19;;;30.17;26.19
141;BME280;65;48.778;9.160;2022-08-21T13:14:42;98374.34;;;31.29;24.73
141;BME280;65;48.778;9.160;2022-08-21T13:17:10;98380.84;;;32.56;23.37
141;BME280;65;48.778;9.160;2022-08-21T13:19:36;98380.66;;;32.21;23.19
141;BME280;65;48.778;9.160;2022-08-21T13:22:03;98381.06;;;32.06;23.64
141;BME280;65;48.778;9.160;2022-08-21T13:24:32;98373.25;;;31.73;23.79
141;BME280;65;48.778;9.160;2022-08-21T13:26:58;98379.88;;;32.80;22.71
141;BME280;65;48.778;9.160;2022-08-21T13:29:32;98382.38;;;32.93;22.55
141;BME280;65;48.778;9.160;2022-08-21T13:32:02;98379.63;;;32.82;23.04
141;BME280;65;48.778;9.160;2022-08-21T13:34:34;98368.88;;;33.45;22.54
141;BME280;65;48.778;9.160;2022-08-21T13:37:04;98369.41;;;34.46;21.05
141;BME280;65;48.778;9.160;2022-08-21T13:39:30;98359.19;;;34.86;20.27
141;BME280;65;48.778;9.160;2022-08-21T13:41:58;98357.44;;;34.23;21.15
141;BME280;65;48.778;9.160;2022-08-21T13:47:04;98357.28;;;33.78;21.50
141;BME280;65;48.778;9.160;2022-08-21T13:49:34;98354.69;;;34.23;20.59
141;BME280;65;48.778;9.160;2022-08-21T13:52:00;98356.56;;;34.80;19.90
141;BME280;65;48.778;9.160;2022-08-21T13:54:39;98353.09;;;35.18;19.99
141;BME280;65;48.778;9.160;2022-08-21T13:57:19;98338.25;;;35.53;19.40
141;BME280;65;48.778;9.160;2022-08-21T13:59:45;98338.19;;;33.95;20.91
141;BME280;65;48.778;9.160;2022-08-21T14:02:18;98349.69;;;34.20;21.72
141;BME280;65;48.778;9.160;2022-08-21T14:04:55;98347.97;;;34.60;20.55
141;BME280;65;48.778;9.160;2022-08-21T14:10:04;98350.97;;;34.58;19.88
141;BME280;65;48.778;9.160;2022-08-21T14:12:58;98342.94;;;35.74;19.21
141;BME280;65;48.778;9.160;2022-08-21T14:15:25;98340.47;;;35.34;19.33
141;BME280;65;48.778;9.160;2022-08-21T14:18:16;98341.09;;;35.24;19.51
141;BME280;65;48.778;9.160;2022-08-21T14:20:42;98342.53;;;34.93;19.78
141;BME280;65;48.778;9.160;2022-08-21T14:23:09;98336.56;;;34.51;20.02
141;BME280;65;48.778;9.160;2022-08-21T14:25:44;98336.72;;;34.44;19.75
141;BME280;65;48.778;9.160;2022-08-21T14:28:19;98340.94;;;33.95;20.77
141;BME280;65;48.778;9.160;2022-08-21T14:30:45;98331.81;;;34.06;20.83
141;BME280;65;48.778;9.160;2022-08-21T14:33:16;98333.19;;;33.92;20.54
141;BME280;65;48.778;9.160;2022-08-21T14:35:43;98336.94;;;33.62;20.69
141;BME280;65;48.778;9.160;2022-08-21T14:38:17;98325.28;;;33.09;21.41
141;BME280;65;48.778;9.160;2022-08-21T14:40:46;98327.88;;;33.04;21.50
141;BME280;65;48.778;9.160;2022-08-21T14:43:12;98326.84;;;32.63;22.06
141;BME280;65;48.778;9.160;2022-08-21T14:45:37;98329.19;;;32.48;21.92
141;BME280;65;48.778;9.160;2022-08-21T14:48:07;98331.69;;;32.49;22.80
141;BME280;65;48.778;9.160;2022-08-21T14:50:33;98328.66;;;32.09;22.77
141;BME280;65;48.778;9.160;2022-08-21T14:52:58;98325.56;;;32.35;22.54
141;BME280;65;48.778;9.160;2022-08-21T14:55:24;98322.75;;;31.57;22.92
141;BME280;65;48.778;9.160;2022-08-21T14:57:51;98314.75;;;30.69;24.00
141;BME280;65;48.778;9.160;2022-08-21T15:00:20;98310.69;;;30.47;24.48
141;BME280;65;48.778;9.160;2022-08-21T15:02:48;98312.47;;;30.91;23.43
141;BME280;65;48.778;9.160;2022-08-21T15:05:14;98311.78;;;30.96;24.04
141;BME280;65;48.778;9.160;2022-08-21T15:07:39;98309.44;;;30.43;24.69
141;BME280;65;48.778;9.160;2022-08-21T15:10:06;98302.22;;;30.55;24.44
141;BME280;65;48.778;9.160;2022-08-21T15:12:32;98305.09;;;30.35;25.13
141;BME280;65;48.778;9.160;2022-08-21T15:14:58;98307.00;;;30.35;24.63
141;BME280;65;48.778;9.160;2022-08-21T15:17:24;98299.25;;;30.32;24.56
141;BME280;65;48.778;9.160;2022-08-21T15:19:50;98302.91;;;30.19;25.29
141;BME280;65;48.778;9.160;2022-08-21T15:22:15;98299.13;;;29.75;25.12
141;BME280;65;48.778;9.160;2022-08-21T15:24:40;98289.78;;;29.45;25.24
141;BME280;65;48.778;9.160;2022-08-21T15:27:08;98292.59;;;28.85;26.72
141;BME280;65;48.778;9.160;2022-08-21T15:29:34;98290.91;;;28.78;26.34